Carl — WDG6376 — position and weather

sailwx.info

Track history (hours):
 
Tides and Currents Weather Stations Pressure Air Temp Water Temp Dewpoint Dewpoint Depression Visibility Wind Speed Wind Dir Waves Ship Positions

Carl

Owner: POINT COMFORT TOWING CO., INC., POINT COMFORT, TX. More information available from US FCC via Universal Licensing System and Coast Guard Vessel Documentation Center.

Last reported at 2017-Nov-20 00:30 UTC. Time now 2017-Nov-21 06:28 UTC.
Position N 30°13' W 093°15'.

Length 32 m; draft 4 m.

Type: Towing. MMSI: 367556330.

Date/timePositionNaut miles runAvg speedWind from/ knotsBaromVisibWave heightAir tempDewpointWater temp
2017-Nov-20 00:30N 30°13' W 093°15'0 0.0
2017-Nov-20 00:00N 30°13' W 093°15'0 0.0
2017-Nov-19 23:30N 30°13' W 093°15'0 0.0
2017-Nov-19 23:00N 30°13' W 093°15'0 0.0
2017-Nov-19 22:30N 30°13' W 093°15'0 0.0
2017-Nov-19 22:00N 30°13' W 093°15'0 0.0
2017-Nov-19 15:10N 30°13' W 093°15'0 0.0
2017-Nov-19 15:00N 30°13' W 093°15'0 0.0
2017-Nov-19 14:29N 30°13' W 093°15'0 0.0
2017-Nov-19 14:00N 30°13' W 093°15'0 0.0
2017-Nov-19 13:30N 30°13' W 093°15'0 0.0
2017-Nov-19 13:00N 30°13' W 093°15'0 0.0
2017-Nov-19 12:30N 30°13' W 093°15'0 0.0
2017-Nov-19 12:00N 30°13' W 093°15'0 0.0
2017-Nov-19 11:30N 30°13' W 093°15'0 0.0
2017-Nov-19 11:00N 30°13' W 093°15'0 0.0
2017-Nov-19 10:30N 30°13' W 093°15'0 0.0
2017-Nov-19 10:00N 30°13' W 093°15'0 0.0
2017-Nov-19 09:30N 30°13' W 093°15'0 0.0
2017-Nov-19 09:00N 30°13' W 093°15'0 0.0
2017-Nov-19 08:30N 30°13' W 093°15'0 0.0
2017-Nov-19 08:00N 30°13' W 093°15'0 0.0
2017-Nov-19 07:30N 30°13' W 093°15'0 0.0
2017-Nov-19 07:00N 30°13' W 093°15'0 0.0
2017-Nov-19 06:30N 30°13' W 093°15'0 0.0
2017-Nov-19 06:00N 30°13' W 093°15'0 0.0
2017-Nov-19 05:30N 30°13' W 093°15'0 0.0
2017-Nov-19 05:00N 30°13' W 093°15'0 0.0
2017-Nov-19 04:30N 30°13' W 093°15'0 0.0
2017-Nov-19 04:00N 30°13' W 093°15'0 0.0
2017-Nov-19 03:30N 30°13' W 093°15'1 2.3
2017-Nov-19 03:00N 30°14' W 093°15'0 0.0
2017-Nov-19 02:30N 30°14' W 093°15'0 0.3
2017-Nov-19 02:00N 30°14' W 093°15'1 2.1
2017-Nov-19 01:30N 30°13' W 093°15'0 0.0
2017-Nov-19 01:00N 30°13' W 093°15'0 0.0
2017-Nov-19 00:30N 30°13' W 093°15'0 0.0
2017-Nov-19 00:00N 30°13' W 093°15'4 7.8
2017-Nov-18 23:30N 30°11' W 093°19'2 4.2
2017-Nov-18 23:00N 30°09' W 093°20'1 1.5
2017-Nov-18 22:30N 30°09' W 093°20'2 3.0
2017-Nov-18 22:00N 30°11' W 093°19'0 0.0
2017-Nov-18 21:30N 30°11' W 093°19'0 0.0
2017-Nov-18 21:00N 30°11' W 093°19'0 0.0
2017-Nov-18 20:30N 30°11' W 093°19'0 0.8
2017-Nov-18 20:00N 30°11' W 093°19'1 1.0
2017-Nov-18 19:30N 30°11' W 093°19'0 0.0
2017-Nov-18 19:00N 30°11' W 093°19'2 4.6
2017-Nov-18 18:30N 30°12' W 093°17'2 3.2
2017-Nov-18 18:00N 30°13' W 093°15'0 0.0
2017-Nov-18 17:27N 30°13' W 093°15'0 0.0
2017-Nov-18 16:45N 30°13' W 093°15'0 0.0
2017-Nov-18 16:23N 30°13' W 093°15'0 0.0
2017-Nov-18 15:55N 30°13' W 093°15'0 0.0
2017-Nov-18 15:30N 30°13' W 093°15'0 0.0
2017-Nov-18 15:00N 30°13' W 093°15'0 0.0
2017-Nov-18 14:30N 30°13' W 093°15'0 0.0
2017-Nov-18 14:00N 30°13' W 093°15'0 0.0
2017-Nov-18 13:30N 30°13' W 093°15'0 0.0
2017-Nov-18 13:00N 30°13' W 093°15'0 0.0
2017-Nov-18 12:30N 30°13' W 093°15'0 0.0
2017-Nov-18 12:00N 30°13' W 093°15'0 0.0
2017-Nov-18 11:30N 30°13' W 093°15'0 0.0
2017-Nov-18 11:00N 30°13' W 093°15'0 0.0
2017-Nov-18 10:30N 30°13' W 093°15'0 0.0
2017-Nov-18 10:00N 30°13' W 093°15'0 0.0
2017-Nov-18 09:30N 30°13' W 093°15'0 0.0
2017-Nov-18 09:00N 30°13' W 093°15'0 0.0
2017-Nov-18 08:30N 30°13' W 093°15'0 0.0
2017-Nov-18 08:00N 30°13' W 093°15'0 0.0
2017-Nov-18 07:30N 30°13' W 093°15'0 0.0
2017-Nov-18 07:00N 30°13' W 093°15'0 0.0
2017-Nov-18 06:30N 30°13' W 093°15'0 0.0
2017-Nov-18 06:00N 30°13' W 093°15'0 0.0
2017-Nov-18 05:30N 30°13' W 093°15'0 0.0
2017-Nov-18 05:00N 30°13' W 093°15'0 0.0
2017-Nov-18 04:30N 30°13' W 093°15'0 0.0
2017-Nov-18 04:00N 30°13' W 093°15'0 0.0
2017-Nov-18 03:30N 30°13' W 093°15'0 0.0
2017-Nov-18 03:00N 30°13' W 093°15'0 0.0
2017-Nov-18 02:30N 30°13' W 093°15'0 0.0
2017-Nov-18 02:00N 30°13' W 093°15'0 0.0
2017-Nov-18 01:30N 30°13' W 093°15'0 0.0
2017-Nov-18 01:00N 30°13' W 093°15'0 0.0
2017-Nov-18 00:30N 30°13' W 093°15'0 0.0
2017-Nov-18 00:00N 30°13' W 093°15'0 0.0
2017-Nov-17 23:30N 30°13' W 093°15'0 0.0
2017-Nov-17 23:00N 30°13' W 093°15'0 0.0
2017-Nov-17 22:30N 30°13' W 093°15'0 0.0
2017-Nov-17 22:00N 30°13' W 093°15'0 0.0
2017-Nov-17 21:28N 30°13' W 093°15'0 0.0
2017-Nov-17 17:08N 30°13' W 093°15'0 0.0
2017-Nov-17 17:00N 30°13' W 093°15'4 8.4
2017-Nov-17 16:30N 30°10' W 093°19'1 1.6
2017-Nov-17 16:00N 30°11' W 093°19'3 5.9
2017-Nov-17 15:30N 30°12' W 093°16'0 1.0
2017-Nov-17 15:00N 30°13' W 093°15'0 0.0
2017-Nov-17 14:30N 30°13' W 093°15'0 0.0
2017-Nov-17 14:00N 30°13' W 093°15'0 0.0
2017-Nov-17 13:30N 30°13' W 093°15'0 0.0
2017-Nov-17 13:00N 30°13' W 093°15'0 0.0
2017-Nov-17 12:30N 30°13' W 093°15'0 0.0
2017-Nov-17 12:00N 30°13' W 093°15'0 0.0
2017-Nov-17 11:30N 30°13' W 093°15'0 0.0
2017-Nov-17 11:00N 30°13' W 093°15'0 0.0
2017-Nov-17 10:30N 30°13' W 093°15'0 0.0
2017-Nov-17 10:00N 30°13' W 093°15'0 0.0
2017-Nov-17 09:30N 30°13' W 093°15'0 0.0
2017-Nov-17 09:00N 30°13' W 093°15'0 0.0
2017-Nov-17 08:30N 30°13' W 093°15'0 0.0
2017-Nov-17 08:00N 30°13' W 093°15'0 0.0
2017-Nov-17 07:30N 30°13' W 093°15'0 0.0
2017-Nov-17 07:00N 30°13' W 093°15'0 0.0
2017-Nov-17 06:30N 30°13' W 093°15'2 3.1
2017-Nov-17 06:00N 30°12' W 093°17'4 8.0
2017-Nov-17 05:30N 30°09' W 093°20'2 3.3
2017-Nov-17 05:00N 30°11' W 093°19'0 0.1
2017-Nov-17 04:30N 30°11' W 093°19'0 0.1
2017-Nov-17 04:00N 30°11' W 093°19'3 6.8
2017-Nov-17 03:30N 30°13' W 093°16'1 2.7
2017-Nov-17 03:00N 30°14' W 093°15'0 0.5
2017-Nov-17 02:26N 30°14' W 093°15'1 2.9
2017-Nov-17 02:00N 30°12' W 093°16'2 4.0
2017-Nov-17 01:30N 30°11' W 093°18'1 1.6
2017-Nov-17 01:00N 30°12' W 093°17'2 3.9
2017-Nov-17 00:30N 30°13' W 093°15'0 0.0
2017-Nov-17 00:00N 30°13' W 093°15'0 0.0
2017-Nov-16 23:30N 30°13' W 093°15'0 0.0
2017-Nov-16 23:00N 30°13' W 093°15'0 0.0
2017-Nov-16 22:30N 30°13' W 093°15'0 0.0
2017-Nov-16 22:00N 30°13' W 093°15'0 0.0
2017-Nov-16 21:30N 30°13' W 093°15'0 0.0
2017-Nov-16 21:00N 30°13' W 093°15'0 0.0
2017-Nov-16 20:30N 30°13' W 093°15'0 0.0
2017-Nov-16 20:00N 30°13' W 093°15'0 0.0
2017-Nov-16 19:30N 30°13' W 093°15'0 0.0
2017-Nov-16 19:00N 30°13' W 093°15'0 0.0
2017-Nov-16 18:30N 30°13' W 093°15'0 0.0
2017-Nov-16 18:00N 30°13' W 093°15'0 0.0
2017-Nov-16 17:30N 30°13' W 093°15'0 0.0
2017-Nov-16 17:00N 30°13' W 093°15'0 0.0
2017-Nov-16 16:30N 30°13' W 093°15'0 0.0
2017-Nov-16 16:00N 30°13' W 093°15'0 0.0
2017-Nov-16 15:30N 30°13' W 093°15'0 0.0
2017-Nov-16 15:00N 30°13' W 093°15'0 0.0
2017-Nov-16 14:30N 30°13' W 093°15'0 0.0
2017-Nov-16 14:00N 30°13' W 093°15'0 0.0
2017-Nov-16 13:30N 30°13' W 093°15'0 0.0
2017-Nov-16 13:00N 30°13' W 093°15'0 0.0
2017-Nov-16 12:30N 30°13' W 093°15'0 0.0
2017-Nov-16 12:00N 30°13' W 093°15'0 0.0
2017-Nov-16 11:30N 30°13' W 093°15'0 0.0
2017-Nov-16 11:00N 30°13' W 093°15'0 0.0
2017-Nov-16 10:30N 30°13' W 093°15'0 0.0
2017-Nov-16 10:00N 30°13' W 093°15'0 0.0
2017-Nov-16 09:30N 30°13' W 093°15'0 0.0
2017-Nov-16 09:00N 30°13' W 093°15'0 0.0
2017-Nov-16 08:30N 30°13' W 093°15'0 0.0
2017-Nov-16 08:00N 30°13' W 093°15'0 0.0
2017-Nov-16 07:30N 30°13' W 093°15'0 0.0
2017-Nov-16 07:00N 30°13' W 093°15'0 0.0
2017-Nov-16 06:30N 30°13' W 093°15'0 0.0
2017-Nov-16 06:00N 30°13' W 093°15'0 0.0
2017-Nov-16 05:30N 30°13' W 093°15'0 0.0
2017-Nov-16 05:00N 30°13' W 093°15'0 0.0
2017-Nov-16 04:30N 30°13' W 093°15'0 0.0
2017-Nov-16 04:00N 30°13' W 093°15'0 0.0
2017-Nov-16 03:30N 30°13' W 093°15'0 0.0
2017-Nov-16 03:00N 30°13' W 093°15'0 0.0
2017-Nov-16 02:30N 30°13' W 093°15'0 0.0
2017-Nov-16 02:00N 30°13' W 093°15'0 0.0
2017-Nov-16 01:30N 30°13' W 093°15'0 0.0
2017-Nov-16 01:00N 30°13' W 093°15'0 0.0
2017-Nov-16 00:30N 30°13' W 093°15'0 0.0
2017-Nov-16 00:00N 30°13' W 093°15'0 0.0
2017-Nov-15 23:30N 30°13' W 093°15'0 0.0
2017-Nov-15 23:00N 30°13' W 093°15'0 0.0
2017-Nov-15 22:30N 30°13' W 093°15'0 0.0
2017-Nov-15 21:59N 30°13' W 093°15'0 0.8
2017-Nov-15 21:30N 30°13' W 093°16'0 0.8
2017-Nov-15 21:00N 30°13' W 093°15'1 2.5
2017-Nov-15 20:30N 30°12' W 093°16'3 5.7
2017-Nov-15 20:01N 30°11' W 093°19'2 4.0
2017-Nov-15 19:30N 30°09' W 093°20'1 1.1
2017-Nov-15 19:00N 30°08' W 093°20'1 1.1
2017-Nov-15 18:30N 30°09' W 093°20'4 8.4
2017-Nov-15 18:00N 30°12' W 093°17'1 3.0
2017-Nov-15 17:30N 30°13' W 093°15'0 0.0
2017-Nov-15 17:00N 30°13' W 093°15'0 0.0
2017-Nov-15 16:30N 30°13' W 093°15'0 0.0
2017-Nov-15 16:00N 30°13' W 093°15'0 0.0
2017-Nov-15 15:30N 30°13' W 093°15'0 0.0
2017-Nov-15 15:00N 30°13' W 093°15'0 0.0
2017-Nov-15 14:30N 30°13' W 093°15'0 0.0
2017-Nov-15 14:00N 30°13' W 093°15'0 0.0
2017-Nov-15 13:30N 30°13' W 093°15'0 0.0
2017-Nov-15 13:00N 30°13' W 093°15'0 0.0
2017-Nov-15 12:30N 30°13' W 093°15'0 0.0
2017-Nov-15 12:00N 30°13' W 093°15'0 0.0
2017-Nov-15 11:26N 30°13' W 093°15'0 0.0
2017-Nov-15 10:41N 30°13' W 093°15'0 0.0
2017-Nov-15 10:30N 30°13' W 093°15'0 0.0
2017-Nov-15 10:00N 30°13' W 093°15'0 0.0
2017-Nov-15 09:30N 30°13' W 093°15'0 0.0
2017-Nov-15 09:00N 30°13' W 093°15'0 0.0
2017-Nov-15 08:30N 30°13' W 093°15'1 2.8
2017-Nov-15 08:00N 30°12' W 093°17'2 3.9
2017-Nov-15 07:30N 30°13' W 093°15'1 1.4
2017-Nov-15 07:00N 30°14' W 093°15'0 0.0
2017-Nov-15 06:30N 30°14' W 093°15'1 2.6
2017-Nov-15 06:00N 30°13' W 093°15'0 0.0
2017-Nov-15 05:30N 30°13' W 093°15'0 0.0
2017-Nov-15 05:00N 30°13' W 093°15'0 0.0
2017-Nov-15 04:30N 30°13' W 093°15'0 0.0
2017-Nov-15 04:00N 30°13' W 093°15'0 0.0
2017-Nov-15 03:30N 30°13' W 093°15'0 0.0
2017-Nov-15 03:00N 30°13' W 093°15'0 0.0
2017-Nov-15 02:30N 30°13' W 093°15'0 0.0
2017-Nov-15 02:00N 30°13' W 093°15'0 0.0
2017-Nov-15 01:30N 30°13' W 093°15'0 0.0
2017-Nov-15 01:00N 30°13' W 093°15'0 0.0
2017-Nov-15 00:30N 30°13' W 093°15'0 0.0
2017-Nov-15 00:00N 30°13' W 093°15'0 0.0
2017-Nov-14 23:30N 30°13' W 093°15'0 0.0
2017-Nov-14 23:00N 30°13' W 093°15'0 0.0
2017-Nov-14 22:30N 30°13' W 093°15'0 0.1
2017-Nov-14 22:00N 30°13' W 093°15'4 8.9
2017-Nov-14 21:30N 30°10' W 093°19'5 2.3
2017-Nov-14 19:12N 30°14' W 093°15'0 0.0
2017-Nov-14 19:00N 30°14' W 093°15'1 1.9
2017-Nov-14 18:31N 30°13' W 093°15'0 0.3
2017-Nov-14 17:20N 30°13' W 093°15'0 0.0
2017-Nov-14 15:11N 30°13' W 093°15'0 0.0
2017-Nov-14 14:58N 30°13' W 093°15'0 0.0
2017-Nov-14 14:30N 30°13' W 093°15'0 0.0
2017-Nov-14 13:59N 30°13' W 093°15'0 0.0
2017-Nov-14 13:31N 30°13' W 093°15'0 0.0
2017-Nov-14 13:00N 30°13' W 093°15'0 0.0
2017-Nov-14 12:30N 30°13' W 093°15'0 0.0
2017-Nov-13 01:04N 30°13' W 093°15'0 0.0
2017-Nov-13 00:57N 30°13' W 093°15'0 0.0
2017-Nov-13 00:07N 30°13' W 093°15'0 0.0
2017-Nov-12 23:59N 30°13' W 093°15'0 0.0
2017-Nov-12 22:55N 30°13' W 093°15'0 0.0
2017-Nov-12 22:29N 30°13' W 093°15'0 0.0
2017-Nov-12 21:55N 30°13' W 093°15'0 0.0
2017-Nov-12 20:21N 30°13' W 093°15'0 0.0
2017-Nov-12 17:37N 30°13' W 093°15'0 0.0
2017-Nov-12 17:21N 30°13' W 093°15'0 0.0
2017-Nov-12 16:55N 30°13' W 093°15'0 0.0
2017-Nov-12 15:53N 30°13' W 093°15'0 0.0
2017-Nov-12 15:29N 30°13' W 093°15'0 0.0
2017-Nov-12 14:59N 30°13' W 093°15'0 0.0
2017-Nov-12 14:21N 30°13' W 093°15'0 0.0
2017-Nov-12 13:55N 30°13' W 093°15'0 0.0
2017-Nov-12 13:25N 30°13' W 093°15'0 0.0
2017-Nov-12 12:55N 30°13' W 093°15'0 0.0
2017-Nov-12 12:21N 30°13' W 093°15'0 0.0
2017-Nov-12 11:53N 30°13' W 093°15'0 0.0
2017-Nov-10 16:30N 30°13' W 093°15'0 0.0
2017-Nov-10 16:00N 30°13' W 093°15'0 0.0
2017-Nov-10 15:30N 30°13' W 093°15'0 0.0
2017-Nov-10 15:01N 30°13' W 093°15'0 0.0
2017-Nov-10 14:31N 30°13' W 093°15'0 0.0
2017-Nov-10 14:01N 30°13' W 093°15'0 0.0
2017-Nov-10 13:31N 30°13' W 093°15'0 0.0
2017-Nov-10 13:01N 30°13' W 093°15'0 0.0
2017-Nov-10 12:31N 30°13' W 093°15'0 0.0
2017-Nov-10 12:01N 30°13' W 093°15'0 0.0
2017-Nov-10 11:30N 30°13' W 093°15'0 0.0
2017-Nov-10 11:01N 30°13' W 093°15'0 0.0
2017-Nov-10 10:31N 30°13' W 093°15'0 0.0
2017-Nov-10 10:01N 30°13' W 093°15'0 0.0
2017-Nov-10 09:31N 30°13' W 093°15'0 0.0
2017-Nov-10 09:00N 30°13' W 093°15'1 2.7
2017-Nov-10 08:30N 30°12' W 093°17'4 7.2
2017-Nov-10 08:00N 30°09' W 093°20'2 3.6
2017-Nov-10 07:31N 30°11' W 093°19'2 4.7
2017-Nov-10 07:01N 30°12' W 093°16'1 1.4
2017-Nov-10 06:31N 30°13' W 093°16'0 0.7
2017-Nov-10 06:01N 30°13' W 093°16'0 0.9
2017-Nov-10 05:31N 30°13' W 093°15'0 0.0
2017-Nov-10 05:01N 30°13' W 093°15'0 0.0
2017-Nov-10 04:31N 30°13' W 093°15'0 0.9
2017-Nov-10 04:00N 30°12' W 093°16'1 2.0
2017-Nov-10 03:30N 30°13' W 093°17'0 0.2
2017-Nov-10 03:01N 30°13' W 093°17'1 1.3
2017-Nov-10 02:31N 30°12' W 093°17'2 4.7
2017-Nov-10 02:01N 30°11' W 093°19'3 5.1
2017-Nov-10 01:31N 30°08' W 093°20'0 0.9
2017-Nov-10 01:01N 30°08' W 093°20'3 6.0
2017-Nov-10 00:31N 30°11' W 093°19'  
Track history (hours):
 
Tides and Currents Weather Stations Pressure Air Temp Water Temp Dewpoint Dewpoint Depression Visibility Wind Speed Wind Dir Waves Ship Positions

Carl

Owner: POINT COMFORT TOWING CO., INC., POINT COMFORT, TX. More information available from US FCC via Universal Licensing System and Coast Guard Vessel Documentation Center.

Last reported at 2017-Nov-20 00:30 UTC. Time now 2017-Nov-21 06:28 UTC.
Position N 30°13' W 093°15'.

Length 32 m; draft 4 m.

Type: Towing. MMSI: 367556330.

Date/timePositionNaut miles runAvg speedWind from/ knotsBaromVisibWave heightAir tempDewpointWater temp
2017-Nov-20 00:30N 30°13' W 093°15'0 0.0
2017-Nov-20 00:00N 30°13' W 093°15'0 0.0
2017-Nov-19 23:30N 30°13' W 093°15'0 0.0
2017-Nov-19 23:00N 30°13' W 093°15'0 0.0
2017-Nov-19 22:30N 30°13' W 093°15'0 0.0
2017-Nov-19 22:00N 30°13' W 093°15'0 0.0
2017-Nov-19 15:10N 30°13' W 093°15'0 0.0
2017-Nov-19 15:00N 30°13' W 093°15'0 0.0
2017-Nov-19 14:29N 30°13' W 093°15'0 0.0
2017-Nov-19 14:00N 30°13' W 093°15'0 0.0
2017-Nov-19 13:30N 30°13' W 093°15'0 0.0
2017-Nov-19 13:00N 30°13' W 093°15'0 0.0
2017-Nov-19 12:30N 30°13' W 093°15'0 0.0
2017-Nov-19 12:00N 30°13' W 093°15'0 0.0
2017-Nov-19 11:30N 30°13' W 093°15'0 0.0
2017-Nov-19 11:00N 30°13' W 093°15'0 0.0
2017-Nov-19 10:30N 30°13' W 093°15'0 0.0
2017-Nov-19 10:00N 30°13' W 093°15'0 0.0
2017-Nov-19 09:30N 30°13' W 093°15'0 0.0
2017-Nov-19 09:00N 30°13' W 093°15'0 0.0
2017-Nov-19 08:30N 30°13' W 093°15'0 0.0
2017-Nov-19 08:00N 30°13' W 093°15'0 0.0
2017-Nov-19 07:30N 30°13' W 093°15'0 0.0
2017-Nov-19 07:00N 30°13' W 093°15'0 0.0
2017-Nov-19 06:30N 30°13' W 093°15'0 0.0
2017-Nov-19 06:00N 30°13' W 093°15'0 0.0
2017-Nov-19 05:30N 30°13' W 093°15'0 0.0
2017-Nov-19 05:00N 30°13' W 093°15'0 0.0
2017-Nov-19 04:30N 30°13' W 093°15'0 0.0
2017-Nov-19 04:00N 30°13' W 093°15'0 0.0
2017-Nov-19 03:30N 30°13' W 093°15'1 2.3
2017-Nov-19 03:00N 30°14' W 093°15'0 0.0
2017-Nov-19 02:30N 30°14' W 093°15'0 0.3
2017-Nov-19 02:00N 30°14' W 093°15'1 2.1
2017-Nov-19 01:30N 30°13' W 093°15'0 0.0
2017-Nov-19 01:00N 30°13' W 093°15'0 0.0
2017-Nov-19 00:30N 30°13' W 093°15'0 0.0
2017-Nov-19 00:00N 30°13' W 093°15'4 7.8
2017-Nov-18 23:30N 30°11' W 093°19'2 4.2
2017-Nov-18 23:00N 30°09' W 093°20'1 1.5
2017-Nov-18 22:30N 30°09' W 093°20'2 3.0
2017-Nov-18 22:00N 30°11' W 093°19'0 0.0
2017-Nov-18 21:30N 30°11' W 093°19'0 0.0
2017-Nov-18 21:00N 30°11' W 093°19'0 0.0
2017-Nov-18 20:30N 30°11' W 093°19'0 0.8
2017-Nov-18 20:00N 30°11' W 093°19'1 1.0
2017-Nov-18 19:30N 30°11' W 093°19'0 0.0
2017-Nov-18 19:00N 30°11' W 093°19'2 4.6
2017-Nov-18 18:30N 30°12' W 093°17'2 3.2
2017-Nov-18 18:00N 30°13' W 093°15'0 0.0
2017-Nov-18 17:27N 30°13' W 093°15'0 0.0
2017-Nov-18 16:45N 30°13' W 093°15'0 0.0
2017-Nov-18 16:23N 30°13' W 093°15'0 0.0
2017-Nov-18 15:55N 30°13' W 093°15'0 0.0
2017-Nov-18 15:30N 30°13' W 093°15'0 0.0
2017-Nov-18 15:00N 30°13' W 093°15'0 0.0
2017-Nov-18 14:30N 30°13' W 093°15'0 0.0
2017-Nov-18 14:00N 30°13' W 093°15'0 0.0
2017-Nov-18 13:30N 30°13' W 093°15'0 0.0
2017-Nov-18 13:00N 30°13' W 093°15'0 0.0
2017-Nov-18 12:30N 30°13' W 093°15'0 0.0
2017-Nov-18 12:00N 30°13' W 093°15'0 0.0
2017-Nov-18 11:30N 30°13' W 093°15'0 0.0
2017-Nov-18 11:00N 30°13' W 093°15'0 0.0
2017-Nov-18 10:30N 30°13' W 093°15'0 0.0
2017-Nov-18 10:00N 30°13' W 093°15'0 0.0
2017-Nov-18 09:30N 30°13' W 093°15'0 0.0
2017-Nov-18 09:00N 30°13' W 093°15'0 0.0
2017-Nov-18 08:30N 30°13' W 093°15'0 0.0
2017-Nov-18 08:00N 30°13' W 093°15'0 0.0
2017-Nov-18 07:30N 30°13' W 093°15'0 0.0
2017-Nov-18 07:00N 30°13' W 093°15'0 0.0
2017-Nov-18 06:30N 30°13' W 093°15'0 0.0
2017-Nov-18 06:00N 30°13' W 093°15'0 0.0
2017-Nov-18 05:30N 30°13' W 093°15'0 0.0
2017-Nov-18 05:00N 30°13' W 093°15'0 0.0
2017-Nov-18 04:30N 30°13' W 093°15'0 0.0
2017-Nov-18 04:00N 30°13' W 093°15'0 0.0
2017-Nov-18 03:30N 30°13' W 093°15'0 0.0
2017-Nov-18 03:00N 30°13' W 093°15'0 0.0
2017-Nov-18 02:30N 30°13' W 093°15'0 0.0
2017-Nov-18 02:00N 30°13' W 093°15'0 0.0
2017-Nov-18 01:30N 30°13' W 093°15'0 0.0
2017-Nov-18 01:00N 30°13' W 093°15'0 0.0
2017-Nov-18 00:30N 30°13' W 093°15'0 0.0
2017-Nov-18 00:00N 30°13' W 093°15'0 0.0
2017-Nov-17 23:30N 30°13' W 093°15'0 0.0
2017-Nov-17 23:00N 30°13' W 093°15'0 0.0
2017-Nov-17 22:30N 30°13' W 093°15'0 0.0
2017-Nov-17 22:00N 30°13' W 093°15'0 0.0
2017-Nov-17 21:28N 30°13' W 093°15'0 0.0
2017-Nov-17 17:08N 30°13' W 093°15'0 0.0
2017-Nov-17 17:00N 30°13' W 093°15'4 8.4
2017-Nov-17 16:30N 30°10' W 093°19'1 1.6
2017-Nov-17 16:00N 30°11' W 093°19'3 5.9
2017-Nov-17 15:30N 30°12' W 093°16'0 1.0
2017-Nov-17 15:00N 30°13' W 093°15'0 0.0
2017-Nov-17 14:30N 30°13' W 093°15'0 0.0
2017-Nov-17 14:00N 30°13' W 093°15'0 0.0
2017-Nov-17 13:30N 30°13' W 093°15'0 0.0
2017-Nov-17 13:00N 30°13' W 093°15'0 0.0
2017-Nov-17 12:30N 30°13' W 093°15'0 0.0
2017-Nov-17 12:00N 30°13' W 093°15'0 0.0
2017-Nov-17 11:30N 30°13' W 093°15'0 0.0
2017-Nov-17 11:00N 30°13' W 093°15'0 0.0
2017-Nov-17 10:30N 30°13' W 093°15'0 0.0
2017-Nov-17 10:00N 30°13' W 093°15'0 0.0
2017-Nov-17 09:30N 30°13' W 093°15'0 0.0
2017-Nov-17 09:00N 30°13' W 093°15'0 0.0
2017-Nov-17 08:30N 30°13' W 093°15'0 0.0
2017-Nov-17 08:00N 30°13' W 093°15'0 0.0
2017-Nov-17 07:30N 30°13' W 093°15'0 0.0
2017-Nov-17 07:00N 30°13' W 093°15'0 0.0
2017-Nov-17 06:30N 30°13' W 093°15'2 3.1
2017-Nov-17 06:00N 30°12' W 093°17'4 8.0
2017-Nov-17 05:30N 30°09' W 093°20'2 3.3
2017-Nov-17 05:00N 30°11' W 093°19'0 0.1
2017-Nov-17 04:30N 30°11' W 093°19'0 0.1
2017-Nov-17 04:00N 30°11' W 093°19'3 6.8
2017-Nov-17 03:30N 30°13' W 093°16'1 2.7
2017-Nov-17 03:00N 30°14' W 093°15'0 0.5
2017-Nov-17 02:26N 30°14' W 093°15'1 2.9
2017-Nov-17 02:00N 30°12' W 093°16'2 4.0
2017-Nov-17 01:30N 30°11' W 093°18'1 1.6
2017-Nov-17 01:00N 30°12' W 093°17'2 3.9
2017-Nov-17 00:30N 30°13' W 093°15'0 0.0
2017-Nov-17 00:00N 30°13' W 093°15'0 0.0
2017-Nov-16 23:30N 30°13' W 093°15'0 0.0
2017-Nov-16 23:00N 30°13' W 093°15'0 0.0
2017-Nov-16 22:30N 30°13' W 093°15'0 0.0
2017-Nov-16 22:00N 30°13' W 093°15'0 0.0
2017-Nov-16 21:30N 30°13' W 093°15'0 0.0
2017-Nov-16 21:00N 30°13' W 093°15'0 0.0
2017-Nov-16 20:30N 30°13' W 093°15'0 0.0
2017-Nov-16 20:00N 30°13' W 093°15'0 0.0
2017-Nov-16 19:30N 30°13' W 093°15'0 0.0
2017-Nov-16 19:00N 30°13' W 093°15'0 0.0
2017-Nov-16 18:30N 30°13' W 093°15'0 0.0
2017-Nov-16 18:00N 30°13' W 093°15'0 0.0
2017-Nov-16 17:30N 30°13' W 093°15'0 0.0
2017-Nov-16 17:00N 30°13' W 093°15'0 0.0
2017-Nov-16 16:30N 30°13' W 093°15'0 0.0
2017-Nov-16 16:00N 30°13' W 093°15'0 0.0
2017-Nov-16 15:30N 30°13' W 093°15'0 0.0
2017-Nov-16 15:00N 30°13' W 093°15'0 0.0
2017-Nov-16 14:30N 30°13' W 093°15'0 0.0
2017-Nov-16 14:00N 30°13' W 093°15'0 0.0
2017-Nov-16 13:30N 30°13' W 093°15'0 0.0
2017-Nov-16 13:00N 30°13' W 093°15'0 0.0
2017-Nov-16 12:30N 30°13' W 093°15'0 0.0
2017-Nov-16 12:00N 30°13' W 093°15'0 0.0
2017-Nov-16 11:30N 30°13' W 093°15'0 0.0
2017-Nov-16 11:00N 30°13' W 093°15'0 0.0
2017-Nov-16 10:30N 30°13' W 093°15'0 0.0
2017-Nov-16 10:00N 30°13' W 093°15'0 0.0
2017-Nov-16 09:30N 30°13' W 093°15'0 0.0
2017-Nov-16 09:00N 30°13' W 093°15'0 0.0
2017-Nov-16 08:30N 30°13' W 093°15'0 0.0
2017-Nov-16 08:00N 30°13' W 093°15'0 0.0
2017-Nov-16 07:30N 30°13' W 093°15'0 0.0
2017-Nov-16 07:00N 30°13' W 093°15'0 0.0
2017-Nov-16 06:30N 30°13' W 093°15'0 0.0
2017-Nov-16 06:00N 30°13' W 093°15'0 0.0
2017-Nov-16 05:30N 30°13' W 093°15'0 0.0
2017-Nov-16 05:00N 30°13' W 093°15'0 0.0
2017-Nov-16 04:30N 30°13' W 093°15'0 0.0
2017-Nov-16 04:00N 30°13' W 093°15'0 0.0
2017-Nov-16 03:30N 30°13' W 093°15'0 0.0
2017-Nov-16 03:00N 30°13' W 093°15'0 0.0
2017-Nov-16 02:30N 30°13' W 093°15'0 0.0
2017-Nov-16 02:00N 30°13' W 093°15'0 0.0
2017-Nov-16 01:30N 30°13' W 093°15'0 0.0
2017-Nov-16 01:00N 30°13' W 093°15'0 0.0
2017-Nov-16 00:30N 30°13' W 093°15'0 0.0
2017-Nov-16 00:00N 30°13' W 093°15'0 0.0
2017-Nov-15 23:30N 30°13' W 093°15'0 0.0
2017-Nov-15 23:00N 30°13' W 093°15'0 0.0
2017-Nov-15 22:30N 30°13' W 093°15'0 0.0
2017-Nov-15 21:59N 30°13' W 093°15'0 0.8
2017-Nov-15 21:30N 30°13' W 093°16'0 0.8
2017-Nov-15 21:00N 30°13' W 093°15'1 2.5
2017-Nov-15 20:30N 30°12' W 093°16'3 5.7
2017-Nov-15 20:01N 30°11' W 093°19'2 4.0
2017-Nov-15 19:30N 30°09' W 093°20'1 1.1
2017-Nov-15 19:00N 30°08' W 093°20'1 1.1
2017-Nov-15 18:30N 30°09' W 093°20'4 8.4
2017-Nov-15 18:00N 30°12' W 093°17'1 3.0
2017-Nov-15 17:30N 30°13' W 093°15'0 0.0
2017-Nov-15 17:00N 30°13' W 093°15'0 0.0
2017-Nov-15 16:30N 30°13' W 093°15'0 0.0
2017-Nov-15 16:00N 30°13' W 093°15'0 0.0
2017-Nov-15 15:30N 30°13' W 093°15'0 0.0
2017-Nov-15 15:00N 30°13' W 093°15'0 0.0
2017-Nov-15 14:30N 30°13' W 093°15'0 0.0
2017-Nov-15 14:00N 30°13' W 093°15'0 0.0
2017-Nov-15 13:30N 30°13' W 093°15'0 0.0
2017-Nov-15 13:00N 30°13' W 093°15'0 0.0
2017-Nov-15 12:30N 30°13' W 093°15'0 0.0
2017-Nov-15 12:00N 30°13' W 093°15'0 0.0
2017-Nov-15 11:26N 30°13' W 093°15'0 0.0
2017-Nov-15 10:41N 30°13' W 093°15'0 0.0
2017-Nov-15 10:30N 30°13' W 093°15'0 0.0
2017-Nov-15 10:00N 30°13' W 093°15'0 0.0
2017-Nov-15 09:30N 30°13' W 093°15'0 0.0
2017-Nov-15 09:00N 30°13' W 093°15'0 0.0
2017-Nov-15 08:30N 30°13' W 093°15'1 2.8
2017-Nov-15 08:00N 30°12' W 093°17'2 3.9
2017-Nov-15 07:30N 30°13' W 093°15'1 1.4
2017-Nov-15 07:00N 30°14' W 093°15'0 0.0
2017-Nov-15 06:30N 30°14' W 093°15'1 2.6
2017-Nov-15 06:00N 30°13' W 093°15'0 0.0
2017-Nov-15 05:30N 30°13' W 093°15'0 0.0
2017-Nov-15 05:00N 30°13' W 093°15'0 0.0
2017-Nov-15 04:30N 30°13' W 093°15'0 0.0
2017-Nov-15 04:00N 30°13' W 093°15'0 0.0
2017-Nov-15 03:30N 30°13' W 093°15'0 0.0
2017-Nov-15 03:00N 30°13' W 093°15'0 0.0
2017-Nov-15 02:30N 30°13' W 093°15'0 0.0
2017-Nov-15 02:00N 30°13' W 093°15'0 0.0
2017-Nov-15 01:30N 30°13' W 093°15'0 0.0
2017-Nov-15 01:00N 30°13' W 093°15'0 0.0
2017-Nov-15 00:30N 30°13' W 093°15'0 0.0
2017-Nov-15 00:00N 30°13' W 093°15'0 0.0
2017-Nov-14 23:30N 30°13' W 093°15'0 0.0
2017-Nov-14 23:00N 30°13' W 093°15'0 0.0
2017-Nov-14 22:30N 30°13' W 093°15'0 0.1
2017-Nov-14 22:00N 30°13' W 093°15'4 8.9
2017-Nov-14 21:30N 30°10' W 093°19'5 2.3
2017-Nov-14 19:12N 30°14' W 093°15'0 0.0
2017-Nov-14 19:00N 30°14' W 093°15'1 1.9
2017-Nov-14 18:31N 30°13' W 093°15'0 0.3
2017-Nov-14 17:20N 30°13' W 093°15'0 0.0
2017-Nov-14 15:11N 30°13' W 093°15'0 0.0
2017-Nov-14 14:58N 30°13' W 093°15'0 0.0
2017-Nov-14 14:30N 30°13' W 093°15'0 0.0
2017-Nov-14 13:59N 30°13' W 093°15'0 0.0
2017-Nov-14 13:31N 30°13' W 093°15'0 0.0
2017-Nov-14 13:00N 30°13' W 093°15'0 0.0
2017-Nov-14 12:30N 30°13' W 093°15'0 0.0
2017-Nov-13 01:04N 30°13' W 093°15'0 0.0
2017-Nov-13 00:57N 30°13' W 093°15'0 0.0
2017-Nov-13 00:07N 30°13' W 093°15'0 0.0
2017-Nov-12 23:59N 30°13' W 093°15'0 0.0
2017-Nov-12 22:55N 30°13' W 093°15'0 0.0
2017-Nov-12 22:29N 30°13' W 093°15'0 0.0
2017-Nov-12 21:55N 30°13' W 093°15'0 0.0
2017-Nov-12 20:21N 30°13' W 093°15'0 0.0
2017-Nov-12 17:37N 30°13' W 093°15'0 0.0
2017-Nov-12 17:21N 30°13' W 093°15'0 0.0
2017-Nov-12 16:55N 30°13' W 093°15'0 0.0
2017-Nov-12 15:53N 30°13' W 093°15'0 0.0
2017-Nov-12 15:29N 30°13' W 093°15'0 0.0
2017-Nov-12 14:59N 30°13' W 093°15'0 0.0
2017-Nov-12 14:21N 30°13' W 093°15'0 0.0
2017-Nov-12 13:55N 30°13' W 093°15'0 0.0
2017-Nov-12 13:25N 30°13' W 093°15'0 0.0
2017-Nov-12 12:55N 30°13' W 093°15'0 0.0
2017-Nov-12 12:21N 30°13' W 093°15'0 0.0
2017-Nov-12 11:53N 30°13' W 093°15'0 0.0
2017-Nov-10 16:30N 30°13' W 093°15'0 0.0
2017-Nov-10 16:00N 30°13' W 093°15'0 0.0
2017-Nov-10 15:30N 30°13' W 093°15'0 0.0
2017-Nov-10 15:01N 30°13' W 093°15'0 0.0
2017-Nov-10 14:31N 30°13' W 093°15'0 0.0
2017-Nov-10 14:01N 30°13' W 093°15'0 0.0
2017-Nov-10 13:31N 30°13' W 093°15'0 0.0
2017-Nov-10 13:01N 30°13' W 093°15'0 0.0
2017-Nov-10 12:31N 30°13' W 093°15'0 0.0
2017-Nov-10 12:01N 30°13' W 093°15'0 0.0
2017-Nov-10 11:30N 30°13' W 093°15'0 0.0
2017-Nov-10 11:01N 30°13' W 093°15'0 0.0
2017-Nov-10 10:31N 30°13' W 093°15'0 0.0
2017-Nov-10 10:01N 30°13' W 093°15'0 0.0
2017-Nov-10 09:31N 30°13' W 093°15'0 0.0
2017-Nov-10 09:00N 30°13' W 093°15'1 2.7
2017-Nov-10 08:30N 30°12' W 093°17'4 7.2
2017-Nov-10 08:00N 30°09' W 093°20'2 3.6
2017-Nov-10 07:31N 30°11' W 093°19'2 4.7
2017-Nov-10 07:01N 30°12' W 093°16'1 1.4
2017-Nov-10 06:31N 30°13' W 093°16'0 0.7
2017-Nov-10 06:01N 30°13' W 093°16'0 0.9
2017-Nov-10 05:31N 30°13' W 093°15'0 0.0
2017-Nov-10 05:01N 30°13' W 093°15'0 0.0
2017-Nov-10 04:31N 30°13' W 093°15'0 0.9
2017-Nov-10 04:00N 30°12' W 093°16'1 2.0
2017-Nov-10 03:30N 30°13' W 093°17'0 0.2
2017-Nov-10 03:01N 30°13' W 093°17'1 1.3
2017-Nov-10 02:31N 30°12' W 093°17'2 4.7
2017-Nov-10 02:01N 30°11' W 093°19'3 5.1
2017-Nov-10 01:31N 30°08' W 093°20'0 0.9
2017-Nov-10 01:01N 30°08' W 093°20'3 6.0
2017-Nov-10 00:31N 30°11' W 093°19'  

Dump ship's entire track history